createdAt,value
2023-01-31T00:01:24.895Z,3.26
2023-01-31T00:03:59.517Z,3.22
2023-01-31T00:06:28.981Z,3.27
2023-01-31T00:08:56.546Z,3.32
2023-01-31T00:11:26.008Z,3.41
2023-01-31T00:13:53.125Z,3.37
2023-01-31T00:16:20.625Z,3.38
2023-01-31T00:18:47.332Z,3.47
2023-01-31T00:21:21.959Z,3.42
2023-01-31T00:23:49.505Z,3.35
2023-01-31T00:26:21.445Z,3.41
2023-01-31T00:28:48.978Z,3.30
2023-01-31T00:31:16.464Z,3.32
2023-01-31T00:33:44.495Z,3.36
2023-01-31T00:36:14.157Z,3.37
2023-01-31T00:38:42.400Z,3.34
2023-01-31T00:41:09.235Z,3.37
2023-01-31T00:43:36.083Z,3.41
2023-01-31T00:46:02.597Z,3.37
2023-01-31T00:48:29.372Z,3.35
2023-01-31T00:50:55.783Z,3.39
2023-01-31T00:53:23.821Z,3.39
2023-01-31T00:55:54.060Z,3.43
2023-01-31T00:58:20.795Z,3.38
2023-01-31T01:00:47.643Z,3.43
2023-01-31T01:03:14.505Z,3.32
2023-01-31T01:05:41.393Z,3.32
2023-01-31T01:08:08.040Z,3.34
2023-01-31T01:10:34.709Z,3.26
2023-01-31T01:13:01.480Z,3.28
2023-01-31T01:15:28.150Z,3.30
2023-01-31T01:17:55.591Z,3.32
2023-01-31T01:20:22.006Z,3.44
2023-01-31T01:22:48.404Z,3.41
2023-01-31T01:25:14.851Z,3.33
2023-01-31T01:27:41.231Z,3.43
2023-01-31T01:30:08.458Z,3.36
2023-01-31T01:32:34.858Z,3.41
2023-01-31T01:35:01.823Z,3.38
2023-01-31T01:37:28.194Z,3.31
2023-01-31T01:39:54.619Z,3.28
2023-01-31T01:42:23.673Z,3.14
2023-01-31T01:44:54.093Z,3.04
2023-01-31T01:47:38.374Z,3.10
2023-01-31T01:50:12.003Z,3.07
2023-01-31T01:53:01.668Z,3.02
2023-01-31T01:55:35.253Z,3.09
2023-01-31T01:58:06.368Z,3.05
2023-01-31T02:00:33.869Z,3.11
2023-01-31T02:03:02.100Z,3.21
2023-01-31T02:05:31.710Z,3.21
2023-01-31T02:07:59.581Z,3.27
2023-01-31T02:10:53.607Z,3.29
2023-01-31T02:13:20.676Z,3.37
2023-01-31T02:15:47.255Z,3.31
2023-01-31T02:18:14.141Z,3.36
2023-01-31T02:20:43.294Z,3.38
2023-01-31T02:23:52.336Z,3.35
2023-01-31T02:26:24.597Z,3.35
2023-01-31T02:29:04.372Z,3.36
2023-01-31T02:31:42.841Z,3.31
2023-01-31T02:34:22.344Z,3.39
2023-01-31T02:36:48.708Z,3.34
2023-01-31T02:39:14.976Z,3.39
2023-01-31T02:41:52.079Z,3.26
2023-01-31T02:44:39.049Z,3.21
2023-01-31T02:47:33.101Z,3.19
2023-01-31T02:50:09.637Z,3.09
2023-01-31T02:52:38.934Z,3.07
2023-01-31T02:55:33.102Z,2.99
2023-01-31T02:58:00.871Z,2.98
2023-01-31T03:00:29.505Z,2.85
2023-01-31T03:02:56.420Z,2.91
2023-01-31T03:05:23.849Z,2.88
2023-01-31T03:07:53.959Z,2.91
2023-01-31T03:10:42.511Z,2.95
2023-01-31T03:13:39.503Z,2.96
2023-01-31T03:16:26.542Z,3.03
2023-01-31T03:19:13.792Z,3.11
2023-01-31T03:21:45.602Z,3.05
2023-01-31T03:24:13.437Z,3.10
2023-01-31T03:26:40.215Z,3.05
2023-01-31T03:29:07.007Z,3.13
2023-01-31T03:31:38.115Z,3.12
2023-01-31T03:34:07.637Z,3.11
2023-01-31T03:36:49.197Z,3.11
2023-01-31T03:39:33.709Z,3.12
2023-01-31T03:42:07.546Z,3.19
2023-01-31T03:44:43.562Z,3.17
2023-01-31T03:47:17.942Z,3.18
2023-01-31T03:49:45.573Z,3.16
2023-01-31T03:52:17.427Z,3.15
2023-01-31T03:54:48.301Z,3.16
2023-01-31T03:57:19.690Z,3.27
2023-01-31T03:59:48.201Z,3.26
2023-01-31T04:02:16.293Z,3.17
2023-01-31T04:04:47.318Z,3.29
2023-01-31T04:07:13.726Z,3.24
2023-01-31T04:09:40.167Z,3.08
2023-01-31T04:12:06.583Z,3.04
2023-01-31T04:14:32.971Z,3.00
2023-01-31T04:16:59.383Z,2.96
2023-01-31T04:19:25.766Z,2.95
2023-01-31T04:21:52.143Z,2.97
2023-01-31T04:24:18.586Z,2.94
2023-01-31T04:26:45.020Z,2.91
2023-01-31T04:29:12.128Z,2.86
2023-01-31T04:31:39.632Z,2.84
2023-01-31T04:34:06.125Z,2.77
2023-01-31T04:36:33.292Z,2.83
2023-01-31T04:39:00.874Z,2.89
2023-01-31T04:41:27.590Z,2.92
2023-01-31T04:43:54.163Z,2.96
2023-01-31T04:46:20.548Z,3.02
2023-01-31T04:48:46.960Z,3.03
2023-01-31T04:51:13.473Z,3.05
2023-01-31T04:53:39.861Z,3.12
2023-01-31T04:56:06.803Z,3.09
2023-01-31T04:58:33.185Z,3.11
2023-01-31T05:00:59.683Z,3.13
2023-01-31T05:03:26.095Z,3.13
2023-01-31T05:05:52.478Z,3.18
2023-01-31T05:08:18.886Z,3.17
2023-01-31T05:10:45.369Z,3.19
2023-01-31T05:13:11.787Z,3.19
2023-01-31T05:15:39.821Z,3.16
2023-01-31T05:18:06.698Z,3.18
2023-01-31T05:20:38.264Z,3.15
2023-01-31T05:23:05.066Z,3.13
2023-01-31T05:25:31.718Z,3.12
2023-01-31T05:27:58.139Z,3.13
2023-01-31T05:30:24.723Z,3.13
2023-01-31T05:32:51.304Z,3.21
2023-01-31T05:35:18.104Z,3.25
2023-01-31T05:37:45.967Z,3.30
2023-01-31T05:40:14.262Z,3.32
2023-01-31T05:42:40.941Z,3.37
2023-01-31T05:45:08.825Z,3.42
2023-01-31T05:47:35.408Z,3.40
2023-01-31T05:50:01.811Z,3.40
2023-01-31T05:52:28.406Z,3.43
2023-01-31T05:54:54.805Z,3.45
2023-01-31T05:57:21.342Z,3.47
2023-01-31T05:59:47.750Z,3.47
2023-01-31T06:02:14.249Z,3.54
2023-01-31T06:04:40.637Z,3.54
2023-01-31T06:07:07.084Z,3.46
2023-01-31T06:09:33.591Z,3.42
2023-01-31T06:11:59.993Z,3.43
2023-01-31T06:14:26.442Z,3.48
2023-01-31T06:16:53.047Z,3.48
2023-01-31T06:19:21.453Z,3.49
2023-01-31T06:21:47.879Z,3.53
2023-01-31T06:24:14.268Z,3.57
2023-01-31T06:26:40.679Z,3.55
2023-01-31T06:29:08.992Z,3.61
2023-01-31T06:31:35.507Z,3.59
2023-01-31T06:34:02.012Z,3.66
2023-01-31T06:36:28.505Z,3.70
2023-01-31T06:38:54.946Z,3.65
2023-01-31T06:41:21.871Z,3.85
2023-01-31T06:43:48.677Z,3.87
2023-01-31T06:46:15.368Z,3.85
2023-01-31T06:48:41.869Z,3.87
2023-01-31T06:51:08.342Z,3.85
2023-01-31T06:53:34.714Z,3.99
2023-01-31T06:56:01.163Z,4.05
2023-01-31T06:58:28.141Z,4.02
2023-01-31T07:00:54.861Z,4.11
2023-01-31T07:03:21.280Z,4.08
2023-01-31T07:05:48.646Z,4.14
2023-01-31T07:08:15.137Z,4.18
2023-01-31T07:10:41.603Z,4.12
2023-01-31T07:13:08.000Z,4.16
2023-01-31T07:15:34.385Z,4.14
2023-01-31T07:18:00.842Z,4.09
2023-01-31T07:20:27.401Z,4.06
2023-01-31T07:22:57.107Z,4.04
2023-01-31T07:25:23.885Z,4.07
2023-01-31T07:27:50.315Z,4.01
2023-01-31T07:30:16.919Z,3.99
2023-01-31T07:32:43.323Z,3.99
2023-01-31T07:35:10.004Z,3.97
2023-01-31T07:37:36.432Z,3.98
2023-01-31T07:40:02.802Z,4.03
2023-01-31T07:42:29.779Z,4.06
2023-01-31T07:44:56.257Z,4.02
2023-01-31T07:47:22.654Z,4.03
2023-01-31T07:49:50.467Z,4.09
2023-01-31T07:52:16.860Z,4.12
2023-01-31T07:54:43.247Z,4.14
2023-01-31T07:57:09.615Z,4.10
2023-01-31T07:59:35.991Z,4.08
2023-01-31T08:02:21.014Z,4.08
2023-01-31T08:04:47.814Z,4.06
2023-01-31T08:07:14.309Z,4.11
2023-01-31T08:09:43.389Z,4.17
2023-01-31T08:12:09.768Z,4.19
2023-01-31T08:14:36.196Z,4.15
2023-01-31T08:17:02.650Z,4.23
2023-01-31T08:19:29.559Z,4.24
2023-01-31T08:21:56.128Z,4.21
2023-01-31T08:24:22.507Z,4.28
2023-01-31T08:26:48.972Z,4.22
2023-01-31T08:29:15.395Z,4.24
2023-01-31T08:31:42.274Z,4.23
2023-01-31T08:34:08.750Z,4.21
2023-01-31T08:36:36.097Z,4.20
2023-01-31T08:39:03.415Z,4.21
2023-01-31T08:41:31.424Z,4.23
2023-01-31T08:43:58.915Z,4.27
2023-01-31T08:46:28.067Z,4.31
2023-01-31T08:48:54.508Z,4.32
2023-01-31T08:51:21.611Z,4.28
2023-01-31T08:53:48.087Z,4.30
2023-01-31T08:56:15.165Z,4.14
2023-01-31T08:58:44.686Z,4.09
2023-01-31T09:01:13.350Z,4.01
2023-01-31T09:03:40.242Z,3.97
2023-01-31T09:06:10.349Z,3.89
2023-01-31T09:08:36.750Z,3.84
2023-01-31T09:11:03.468Z,3.78
2023-01-31T09:13:31.266Z,3.82
2023-01-31T09:16:09.330Z,3.89
2023-01-31T09:18:38.751Z,3.92
2023-01-31T09:21:17.429Z,3.94
2023-01-31T09:23:44.533Z,3.88
2023-01-31T09:26:12.002Z,3.93
2023-01-31T09:28:38.698Z,3.99
2023-01-31T09:31:07.494Z,3.90
2023-01-31T09:33:34.813Z,3.90
2023-01-31T09:36:06.275Z,3.90
2023-01-31T09:38:33.052Z,4.01
2023-01-31T09:41:03.029Z,4.02
2023-01-31T09:43:33.908Z,4.03
2023-01-31T09:46:02.067Z,4.02
2023-01-31T09:48:31.207Z,4.05
2023-01-31T09:50:58.927Z,4.07
2023-01-31T09:53:30.440Z,4.12
2023-01-31T09:56:08.201Z,4.22
2023-01-31T09:58:52.890Z,4.35
2023-01-31T10:01:23.903Z,4.42
2023-01-31T10:04:05.946Z,4.50
2023-01-31T10:06:54.263Z,4.50
2023-01-31T10:09:38.155Z,4.39
2023-01-31T10:12:15.898Z,4.30
2023-01-31T10:14:47.789Z,4.38
2023-01-31T10:17:20.807Z,4.34
2023-01-31T10:19:55.227Z,4.37
2023-01-31T10:22:29.122Z,4.37
2023-01-31T10:24:59.937Z,4.36
2023-01-31T10:27:38.327Z,4.36
2023-01-31T10:30:06.971Z,4.38
2023-01-31T10:32:42.077Z,4.43
2023-01-31T10:35:25.123Z,4.46
2023-01-31T10:37:59.348Z,4.49
2023-01-31T10:40:34.230Z,4.60
2023-01-31T10:43:17.010Z,4.61
2023-01-31T10:45:43.480Z,4.63
2023-01-31T10:48:12.808Z,4.58
2023-01-31T10:50:43.951Z,4.53
2023-01-31T10:53:34.765Z,4.62
2023-01-31T10:56:19.866Z,4.50
2023-01-31T10:58:46.879Z,4.50
2023-01-31T11:01:15.074Z,4.40
2023-01-31T11:03:48.340Z,4.48
2023-01-31T11:06:15.318Z,4.49
2023-01-31T11:08:44.536Z,4.48
2023-01-31T11:11:19.496Z,4.58
2023-01-31T11:14:01.944Z,4.53
2023-01-31T11:16:31.823Z,4.57
2023-01-31T11:18:59.538Z,4.47
2023-01-31T11:21:31.863Z,4.50
2023-01-31T11:24:22.475Z,4.51
2023-01-31T11:26:52.833Z,4.57
2023-01-31T11:29:25.564Z,4.58
2023-01-31T11:31:52.308Z,4.65
2023-01-31T11:34:19.922Z,4.64
2023-01-31T11:36:47.087Z,4.74
2023-01-31T11:39:25.925Z,4.63
2023-01-31T11:41:52.411Z,4.79
2023-01-31T11:44:21.032Z,4.78
2023-01-31T11:46:55.299Z,4.84
2023-01-31T11:49:23.039Z,4.91
2023-01-31T11:51:49.792Z,4.91
2023-01-31T11:54:26.062Z,4.94
2023-01-31T11:56:54.792Z,4.95
2023-01-31T11:59:25.785Z,4.95
2023-01-31T12:01:54.096Z,5.02
2023-01-31T12:04:25.207Z,5.08
2023-01-31T12:06:59.377Z,5.05
2023-01-31T12:09:28.367Z,5.11
2023-01-31T12:11:54.737Z,5.11
2023-01-31T12:14:21.169Z,5.08
2023-01-31T12:16:48.640Z,5.14
2023-01-31T12:19:14.949Z,5.15
2023-01-31T12:22:03.909Z,5.04
2023-01-31T12:24:42.306Z,5.14
2023-01-31T12:27:29.934Z,5.26
2023-01-31T12:30:03.715Z,5.22
2023-01-31T12:32:39.031Z,5.29
2023-01-31T12:35:44.947Z,5.21
2023-01-31T12:38:11.253Z,5.23
2023-01-31T12:41:04.107Z,5.25
2023-01-31T12:43:56.789Z,5.29
2023-01-31T12:46:33.832Z,5.33
2023-01-31T12:49:36.239Z,5.34
2023-01-31T12:52:10.003Z,5.35
2023-01-31T12:54:57.778Z,5.35
2023-01-31T12:57:36.312Z,5.37
2023-01-31T13:00:34.032Z,5.32
2023-01-31T13:03:29.668Z,5.38
2023-01-31T13:05:59.143Z,5.45
2023-01-31T13:08:30.768Z,5.47
2023-01-31T13:11:02.517Z,5.46
2023-01-31T13:13:32.105Z,5.51
2023-01-31T13:16:03.277Z,5.53
2023-01-31T13:18:32.786Z,5.40
2023-01-31T13:21:02.510Z,5.35
2023-01-31T13:23:41.185Z,5.26
2023-01-31T13:26:21.468Z,5.14
2023-01-31T13:29:01.493Z,5.15
2023-01-31T13:31:37.044Z,5.13
2023-01-31T13:34:17.601Z,5.09
2023-01-31T13:36:59.157Z,5.08
2023-01-31T13:39:35.369Z,5.10
2023-01-31T13:42:01.910Z,5.14
2023-01-31T13:44:28.283Z,5.09
2023-01-31T13:47:05.108Z,5.08
2023-01-31T13:49:57.253Z,5.08
2023-01-31T13:52:28.434Z,5.11
2023-01-31T13:55:05.890Z,5.15
2023-01-31T13:57:35.339Z,5.03
2023-01-31T14:00:40.250Z,5.04
2023-01-31T14:03:09.783Z,5.01
2023-01-31T14:05:42.443Z,5.09
2023-01-31T14:08:27.307Z,4.99
2023-01-31T14:10:55.632Z,5.01
2023-01-31T14:13:31.168Z,5.08
2023-01-31T14:15:58.276Z,5.09
2023-01-31T14:18:44.440Z,5.17
2023-01-31T14:21:29.046Z,5.23
2023-01-31T14:24:06.229Z,5.01
2023-01-31T14:26:41.513Z,5.12
2023-01-31T14:29:18.420Z,5.16
2023-01-31T14:31:45.820Z,5.20
2023-01-31T14:34:23.370Z,5.10
2023-01-31T14:37:08.257Z,5.13
2023-01-31T14:39:59.887Z,5.26
2023-01-31T14:42:57.246Z,5.22
2023-01-31T14:45:30.000Z,5.18
2023-01-31T14:48:06.096Z,5.25
2023-01-31T14:50:44.529Z,5.24
2023-01-31T14:53:28.981Z,5.21
2023-01-31T14:55:58.271Z,5.21
2023-01-31T14:58:27.498Z,5.22
2023-01-31T15:00:58.668Z,5.25
2023-01-31T15:03:30.729Z,5.17
2023-01-31T15:06:43.740Z,5.24
2023-01-31T15:09:17.916Z,5.32
2023-01-31T15:11:47.161Z,5.25
2023-01-31T15:14:34.312Z,5.25
2023-01-31T15:17:33.046Z,5.35
2023-01-31T15:20:13.226Z,5.37
2023-01-31T15:22:41.377Z,5.37
2023-01-31T15:25:31.800Z,5.38
2023-01-31T15:27:58.889Z,5.43
2023-01-31T15:30:27.561Z,5.53
2023-01-31T15:32:58.254Z,5.46
2023-01-31T15:35:51.538Z,5.47
2023-01-31T15:38:41.545Z,5.46
2023-01-31T15:41:38.187Z,5.62
2023-01-31T15:44:12.335Z,5.63
2023-01-31T15:46:38.747Z,5.69
2023-01-31T15:49:37.944Z,5.67
2023-01-31T15:52:11.287Z,5.57
2023-01-31T15:54:38.372Z,5.71
2023-01-31T15:57:05.653Z,5.72
2023-01-31T15:59:33.423Z,5.80
2023-01-31T16:02:02.154Z,5.82
2023-01-31T16:04:28.958Z,5.81
2023-01-31T16:06:56.196Z,5.80
2023-01-31T16:09:29.245Z,5.73
2023-01-31T16:11:56.704Z,5.82
2023-01-31T16:14:23.348Z,5.84
2023-01-31T16:16:51.698Z,5.72
2023-01-31T16:19:24.418Z,5.85
2023-01-31T16:21:51.215Z,5.91
2023-01-31T16:24:19.545Z,5.82
2023-01-31T16:27:06.797Z,5.98
2023-01-31T16:29:51.531Z,6.00
2023-01-31T16:32:41.728Z,6.06
2023-01-31T16:35:29.695Z,5.95
2023-01-31T16:38:07.601Z,5.95
2023-01-31T16:40:35.751Z,6.05
2023-01-31T16:43:22.396Z,6.07
2023-01-31T16:45:55.174Z,6.06
2023-01-31T16:48:26.233Z,6.18
2023-01-31T16:50:54.314Z,6.18
2023-01-31T16:53:33.971Z,6.21
2023-01-31T16:56:20.625Z,6.14
2023-01-31T16:58:54.362Z,6.20
2023-01-31T17:01:24.077Z,6.26
2023-01-31T17:04:11.601Z,6.29
2023-01-31T17:06:38.486Z,6.34
2023-01-31T17:09:07.418Z,6.31
2023-01-31T17:11:42.813Z,6.34
2023-01-31T17:14:10.152Z,6.33
2023-01-31T17:16:36.622Z,6.37
2023-01-31T17:19:03.057Z,6.38
2023-01-31T17:21:33.101Z,6.42
2023-01-31T17:23:59.631Z,6.38
2023-01-31T17:26:26.006Z,6.46
2023-01-31T17:29:01.433Z,6.43
2023-01-31T17:31:29.596Z,6.35
2023-01-31T17:33:56.189Z,6.36
2023-01-31T17:36:22.716Z,6.34
2023-01-31T17:38:49.835Z,6.33
2023-01-31T17:41:19.014Z,6.31
2023-01-31T17:43:45.472Z,6.33
2023-01-31T17:46:17.045Z,6.30
2023-01-31T17:48:43.675Z,6.41
2023-01-31T17:51:10.733Z,6.48
2023-01-31T17:53:47.956Z,6.48
2023-01-31T17:56:16.179Z,6.43
2023-01-31T17:58:42.745Z,6.29
2023-01-31T18:01:10.699Z,6.31
2023-01-31T18:03:37.213Z,6.26
2023-01-31T18:06:06.068Z,6.18
2023-01-31T18:08:32.828Z,6.10
2023-01-31T18:11:04.539Z,6.17
2023-01-31T18:13:31.057Z,6.02
2023-01-31T18:16:05.194Z,5.99
2023-01-31T18:18:31.720Z,6.04
2023-01-31T18:20:58.265Z,5.96
2023-01-31T18:23:24.841Z,5.99
2023-01-31T18:25:51.249Z,6.01
2023-01-31T18:28:17.622Z,6.10
2023-01-31T18:30:44.121Z,6.23
2023-01-31T18:33:10.528Z,6.29
2023-01-31T18:35:36.895Z,6.31
2023-01-31T18:38:06.553Z,6.24
2023-01-31T18:40:33.172Z,6.25
2023-01-31T18:42:59.543Z,6.31
2023-01-31T18:45:26.316Z,6.26
2023-01-31T18:47:52.753Z,6.22
2023-01-31T18:50:19.207Z,6.17
2023-01-31T18:52:47.209Z,6.23
2023-01-31T18:55:13.672Z,6.20
2023-01-31T18:57:40.034Z,6.28
2023-01-31T19:00:07.042Z,6.19
2023-01-31T19:02:33.483Z,6.06
2023-01-31T19:05:00.412Z,6.08
2023-01-31T19:07:26.775Z,6.02
2023-01-31T19:09:53.191Z,6.03
2023-01-31T19:12:19.573Z,5.96
2023-01-31T19:14:47.991Z,6.03
2023-01-31T19:17:15.735Z,5.95
2023-01-31T19:19:42.105Z,5.82
2023-01-31T19:22:08.561Z,5.73
2023-01-31T19:24:34.951Z,5.85
2023-01-31T19:27:01.325Z,5.80
2023-01-31T19:29:28.781Z,5.73
2023-01-31T19:31:55.426Z,5.68
2023-01-31T19:34:21.851Z,5.63
2023-01-31T19:36:48.954Z,5.61
2023-01-31T19:39:15.389Z,5.54
2023-01-31T19:41:42.359Z,5.69
2023-01-31T19:44:09.101Z,5.64
2023-01-31T19:46:36.407Z,5.55
2023-01-31T19:49:02.834Z,5.57
2023-01-31T19:51:29.710Z,5.54
2023-01-31T19:54:04.170Z,5.55
2023-01-31T19:56:31.161Z,5.48
2023-01-31T19:58:57.996Z,5.56
2023-01-31T20:01:24.521Z,5.51
2023-01-31T20:03:51.036Z,5.35
2023-01-31T20:06:19.995Z,5.32
2023-01-31T20:08:55.140Z,5.40
2023-01-31T20:11:22.505Z,5.31
2023-01-31T20:13:50.011Z,5.33
2023-01-31T20:16:16.733Z,5.39
2023-01-31T20:18:43.260Z,5.42
2023-01-31T20:21:14.967Z,5.36
2023-01-31T20:23:41.629Z,5.26
2023-01-31T20:26:08.153Z,5.30
2023-01-31T20:28:34.624Z,5.31
2023-01-31T20:31:09.047Z,5.46
2023-01-31T20:33:35.871Z,5.36
2023-01-31T20:36:03.766Z,5.21
2023-01-31T20:38:30.779Z,5.20
2023-01-31T20:40:57.254Z,5.19
2023-01-31T20:43:24.957Z,5.21
2023-01-31T20:45:51.867Z,5.28
2023-01-31T20:48:18.777Z,5.32
2023-01-31T20:50:53.912Z,5.20
2023-01-31T20:53:20.744Z,5.19
2023-01-31T20:55:54.165Z,5.16
2023-01-31T20:58:20.531Z,5.18
2023-01-31T21:00:46.996Z,5.25
2023-01-31T21:03:13.460Z,5.15
2023-01-31T21:05:41.076Z,5.01
2023-01-31T21:08:07.455Z,5.18
2023-01-31T21:10:33.857Z,5.33
2023-01-31T21:13:00.284Z,5.18
2023-01-31T21:15:28.664Z,5.08
2023-01-31T21:17:55.271Z,5.18
2023-01-31T21:20:21.949Z,5.15
2023-01-31T21:22:48.644Z,5.02
2023-01-31T21:25:15.116Z,5.10
2023-01-31T21:27:41.619Z,5.10
2023-01-31T21:30:08.728Z,5.11
2023-01-31T21:32:35.100Z,5.09
2023-01-31T21:35:03.313Z,5.00
2023-01-31T21:37:30.078Z,5.00
2023-01-31T21:39:56.491Z,4.91
2023-01-31T21:42:22.945Z,4.87
2023-01-31T21:44:49.280Z,4.96
2023-01-31T21:47:15.858Z,5.05
2023-01-31T21:49:42.740Z,5.05
2023-01-31T21:52:09.886Z,4.97
2023-01-31T21:54:37.054Z,5.07
2023-01-31T21:57:03.675Z,4.95
2023-01-31T21:59:30.101Z,4.96
2023-01-31T22:01:56.694Z,4.87
2023-01-31T22:04:23.421Z,4.78
2023-01-31T22:06:50.496Z,4.86
2023-01-31T22:09:17.511Z,4.80
2023-01-31T22:11:44.114Z,4.85
2023-01-31T22:14:12.459Z,4.88
2023-01-31T22:16:39.950Z,4.95
2023-01-31T22:19:06.687Z,4.73
2023-01-31T22:21:35.839Z,4.69
2023-01-31T22:24:05.107Z,4.70
2023-01-31T22:26:37.023Z,4.83
2023-01-31T22:29:06.536Z,4.71
2023-01-31T22:31:33.452Z,4.74
2023-01-31T22:34:00.202Z,4.75
2023-01-31T22:36:27.201Z,4.79
2023-01-31T22:38:54.562Z,4.69
2023-01-31T22:41:21.286Z,4.73
2023-01-31T22:43:49.234Z,4.53
2023-01-31T22:46:17.935Z,4.55
2023-01-31T22:48:44.437Z,4.56
2023-01-31T22:51:13.212Z,4.57
2023-01-31T22:53:40.107Z,4.55
2023-01-31T22:56:35.882Z,4.42
2023-01-31T22:59:04.241Z,4.44
2023-01-31T23:01:34.447Z,4.40
2023-01-31T23:04:02.191Z,4.42
2023-01-31T23:06:29.138Z,4.42
2023-01-31T23:08:56.367Z,4.46
2023-01-31T23:11:24.268Z,4.38
2023-01-31T23:13:50.734Z,4.40
2023-01-31T23:16:20.257Z,4.40
2023-01-31T23:18:46.953Z,4.37
2023-01-31T23:21:16.045Z,4.40
2023-01-31T23:23:45.403Z,4.33
2023-01-31T23:26:12.776Z,4.31
2023-01-31T23:28:39.539Z,4.34
2023-01-31T23:31:06.091Z,4.36
2023-01-31T23:33:32.558Z,4.39
2023-01-31T23:35:58.947Z,4.39
2023-01-31T23:38:25.613Z,4.42
2023-01-31T23:40:53.229Z,4.42
2023-01-31T23:43:20.311Z,4.39
2023-01-31T23:45:46.894Z,4.49
2023-01-31T23:48:13.592Z,4.56
2023-01-31T23:50:39.979Z,4.57
2023-01-31T23:53:06.545Z,4.51
2023-01-31T23:55:33.124Z,4.56
2023-01-31T23:57:59.501Z,4.55
